< < Back
Terminal Aerodrome Forecast


Current Version              Previous Versions:   1  2  3  4  5  6  7  8  9  

Terminal Aerodrome Forecast

122
FTUS42 KGSP 011800 AAA
TAFHKY
TAF AMD
KHKY 011802Z 0118/0218 03010G18KT P6SM FEW006 BKN023 OVC035
      TEMPO 0118/0120 2SM SHRA BR
     FM020500 00000KT 4SM BR OVC007
     FM021100 00000KT 2SM BR BKN002
     FM021300 02003KT P6SM BKN007
     FM021500 06003KT P6SM BKN020=



Latest METAR

573
SAUS70 KWBC 012200 RRP
MTRHKY
METAR KHKY 012153Z AUTO 01006KT 1SM -RA BR OVC003 17/17 A3013 RMK AO2
SLP185 P0008 T01720167 TSNO


USA.gov is the U.S. government's official web portal to all federal, state and local government web resources and services.